Watertown, CT

5:47 PM EST on March 03, 2015 (GMT -0500)
High above beautiful downtown | Change Station
CLOSE
Current Station
Personal Weather Station
Location: Oakville, CT
Elevation: 534 ft
Nearby Weather Stations
Active Advisory: Winter Weather Advisory Active Notice: Public Information Statement

Elev 534 ft 41.58 °N, 73.10 °W | Updated 2 seconds ago

Overcast
Overcast
23.2 °F
Feels Like 23 °F
N
0.0
Wind Variable Wind from SE
Gusts 3.0 mph

Today
High -- | Low -- °F
--% Chance of Precip.
Yesterday
High -- | Low -- °F
Precip. -- in
6:24 AM 5:44 PM
Waxing Gibbous, 97% visible
Pressure 30.16 in
Visibility 2.0 miles
Clouds Scattered Clouds 1500 ft
Overcast 3300 ft
Windchill 23 °F
Dew Point 21 °F
Humidity 91%
Rainfall 0.00 in
Snow Depth Not available.
UV 0 out of 12
Pollen .50 out of 12
Air Quality Not available.
Flu Activity Not available.
METAR KOXC 032152Z 20009KT 2SM -SN BR SCT015 OVC033 M05/M12 A3016

More Conditions Fewer Conditions

Pressure 30.16 in
Visibility 2.0 miles
Clouds Scattered Clouds 1500 ft
Overcast 3300 ft
Windchill 23 °F
Dew Point 21 °F
Humidity 91%
Rainfall 0.00 in
Snow Depth Not available.
UV 0 out of 12
Pollen .50 out of 12
Air Quality Not available.
Flu Activity Not available.
METAR KOXC 032152Z 20009KT 2SM -SN BR SCT015 OVC033 M05/M12 A3016

More Conditions Fewer Conditions

10-Day Weather Forecast

Almanac

Astronomy

Mar. 03, 2015 Rise Set
Actual Time
Civil Twilight
Nautical Twilight
Astronomical Twilight
Moon
Length of Visible Light
Length of Day
Tomorrow will be .
, % of the Moon is Illuminated

Today's Extremes

State Highs State Lows

Community

WunderPhotos

Upload Photos

1,802,299 photos uploaded!

WunderBlogs® & News

Nearby

Air Quality

  Air Quality AQ Index Pollutant
Not available.

Snow Depth

Station Depth Elevation

Earthquake Activity

City Distance Mag. Time & Date
Minimum magnitude displayed is 2.5.

Coastal Water Temperatures

Place Temperature

Nearby Weather Stations

Winter Weather Advisory
Statement as of 2:32 PM EST on March 03, 2015

... Winter Weather Advisory now in effect until 6 am EST
Wednesday...

* locations... eastern New York and adjacent western New England.

* Hazard types... snow... sleet and freezing rain.

* Accumulations... snow accumulation of 2 to 6 inches... along with
up to a tenth of an inch of ice.

* Snowfall rates... up to half an inch an hour.

* Timing... snow will begin this afternoon and mix with or change
to sleet and freezing rain this evening. Precipitation will
taper off late tonight.

* Impacts... hazardous travel conditions due to snow and ice
covered roads.

* Winds... south 10 to 20 mph with gusts up to 35 mph.

* Temperatures... in the mid to upper 20s... rising into the lower
to middle 30s late tonight.

Precautionary/preparedness actions...

A Winter Weather Advisory means that periods of snow... sleet... or
freezing rain will cause travel difficulties. Be prepared for
slippery roads and limited visibilities... and use caution while
driving.